Terminal Aerodrome Forecast
Issued by NWS Dallas/Fort Worth, TX

Home | Current Version | Previous Version | Text Only | Print | Product List | Glossary On
Versions: 1 2 3 4 5 6 7 8 9 10 11 12 13 14 15 16 17 18 19 20 21 22 23 24 25 26 27 28 29 30 31 32 33 34 35 36 37 38 39 40 41 42
000
FTUS44 KFWD 041732
TAFACT
TAF
KACT 041732Z 0418/0518 36014G24KT 3SM -RA OVC007
     FM042000 35020G30KT 3SM RA OVC005
     FM050800 35021G31KT 2SM -FZRA OVC004
     FM051100 36018KT 2SM -PLSN OVC004
     FM051400 36016KT P6SM SCT004 OVC100=

USA.gov is the U.S. government's official web portal to all federal, state and local government web resources and services.